createdAt,value
2019-01-04T00:00:52.430Z,95.84
2019-01-04T00:01:50.973Z,95.74
2019-01-04T00:02:49.693Z,95.36
2019-01-04T00:03:48.491Z,95.46
2019-01-04T00:04:47.031Z,95.55
2019-01-04T00:05:45.744Z,95.36
2019-01-04T00:06:44.312Z,95.74
2019-01-04T00:07:42.828Z,94.89
2019-01-04T00:08:41.369Z,94.79
2019-01-04T00:09:40.294Z,94.79
2019-01-04T00:10:38.809Z,94.13
2019-01-04T00:11:37.367Z,94.23
2019-01-04T00:12:36.223Z,94.03
2019-01-04T00:13:34.791Z,94.79
2019-01-04T00:14:33.329Z,94.89
2019-01-04T00:15:31.946Z,94.79
2019-01-04T00:16:30.528Z,94.89
2019-01-04T00:17:29.064Z,94.51
2019-01-04T00:18:27.781Z,94.7
2019-01-04T00:19:26.439Z,94.6
2019-01-04T00:20:24.988Z,95.07
2019-01-04T00:21:23.654Z,95.46
2019-01-04T00:22:22.460Z,95.65
2019-01-04T00:23:20.979Z,95.65
2019-01-04T00:24:19.557Z,95.55
2019-01-04T00:25:18.095Z,95.55
2019-01-04T00:26:16.750Z,94.89
2019-01-04T00:27:15.251Z,95.07
2019-01-04T00:28:13.875Z,94.6
2019-01-04T00:29:12.660Z,94.98
2019-01-04T00:30:11.211Z,95.74
2019-01-04T00:31:09.992Z,95.74
2019-01-04T00:32:08.737Z,95.36
2019-01-04T00:33:07.243Z,95.74
2019-01-04T00:34:06.228Z,95.6
2019-01-04T00:35:04.855Z,95.79
2019-01-04T00:36:03.435Z,95.88
2019-01-04T00:37:02.095Z,95.79
2019-01-04T00:38:00.811Z,95.88
2019-01-04T00:38:59.373Z,95.98
2019-01-04T00:39:57.936Z,96.55
2019-01-04T00:40:56.507Z,96.83
2019-01-04T00:41:55.120Z,96.55
2019-01-04T00:42:53.872Z,96.17
2019-01-04T00:43:52.561Z,96.45
2019-01-04T00:44:51.119Z,95.79
2019-01-04T00:45:49.782Z,96.64
2019-01-04T00:46:48.456Z,96.45
2019-01-04T00:49:28.814Z,96.36
2019-01-04T00:50:27.427Z,95.79
2019-01-04T00:51:26.233Z,96.17
2019-01-04T00:52:25.542Z,95.88
2019-01-04T00:53:24.219Z,95.74
2019-01-04T00:54:22.750Z,96.03
2019-01-04T00:55:21.305Z,96.12
2019-01-04T00:56:20.058Z,95.31
2019-01-04T00:57:18.586Z,96.45
2019-01-04T00:58:17.129Z,96.17
2019-01-04T00:59:16.003Z,95.6
2019-01-04T01:00:14.686Z,95.98
2019-01-04T01:01:13.189Z,95.69
2019-01-04T01:02:11.861Z,95.79
2019-01-04T01:03:10.535Z,95.88
2019-01-04T01:04:09.056Z,96.36
2019-01-04T01:05:07.635Z,96.17
2019-01-04T01:06:06.200Z,96.36
2019-01-04T01:08:28.752Z,95.65
2019-01-04T01:09:27.395Z,95.55
2019-01-04T01:10:26.073Z,95.74
2019-01-04T01:11:24.709Z,95.65
2019-01-04T01:14:05.027Z,95.36
2019-01-04T01:15:03.575Z,95.6
2019-01-04T01:16:02.109Z,95.79
2019-01-04T01:17:01.299Z,95.98
2019-01-04T01:18:00.027Z,95.84
2019-01-04T01:18:58.645Z,95.84
2019-01-04T01:19:57.182Z,96.03
2019-01-04T01:20:55.746Z,95.74
2019-01-04T01:21:54.472Z,95.84
2019-01-04T01:22:53.267Z,95.55
2019-01-04T01:23:52.047Z,95.65
2019-01-04T01:24:50.667Z,95.27
2019-01-04T01:25:49.173Z,95.36
2019-01-04T01:26:47.728Z,95.55
2019-01-04T01:27:46.287Z,95.46
2019-01-04T01:28:44.865Z,95.36
2019-01-04T01:29:43.389Z,94.89
2019-01-04T01:30:41.933Z,94.7
2019-01-04T01:31:40.671Z,95.36
2019-01-04T01:32:39.200Z,95.41
2019-01-04T01:33:37.834Z,95.69
2019-01-04T01:34:36.554Z,96.17
2019-01-04T01:35:35.089Z,96.17
2019-01-04T01:36:33.658Z,95.79
2019-01-04T01:37:32.436Z,95.5
2019-01-04T01:38:31.177Z,96.17
2019-01-04T01:39:29.862Z,96.26
2019-01-04T01:40:29.506Z,96.36
2019-01-04T01:41:29.012Z,96.17
2019-01-04T01:42:27.698Z,96.55
2019-01-04T01:43:26.408Z,96.55
2019-01-04T01:44:24.944Z,96.55
2019-01-04T01:45:23.469Z,96.36
2019-01-04T01:46:22.041Z,95.69
2019-01-04T01:47:20.606Z,95.98
2019-01-04T01:48:19.126Z,96.26
2019-01-04T01:49:18.011Z,96.17
2019-01-04T01:50:16.683Z,96.26
2019-01-04T01:51:15.227Z,96.45
2019-01-04T01:52:13.898Z,96.64
2019-01-04T01:53:12.602Z,96.26
2019-01-04T01:54:11.155Z,96.36
2019-01-04T01:55:09.698Z,96.45
2019-01-04T01:56:08.287Z,95.79
2019-01-04T01:57:06.803Z,96.55
2019-01-04T01:58:05.371Z,95.41
2019-01-04T01:59:04.172Z,96.64
2019-01-04T02:00:02.776Z,96.55
2019-01-04T02:01:01.276Z,96.83
2019-01-04T02:02:00.025Z,97.02
2019-01-04T02:02:58.748Z,96.73
2019-01-04T02:03:57.448Z,96.73
2019-01-04T02:04:56.240Z,96.83
2019-01-04T02:05:54.878Z,96.55
2019-01-04T02:06:53.409Z,96.55
2019-01-04T02:07:52.217Z,96.64
2019-01-04T02:08:50.812Z,96.55
2019-01-04T02:09:49.611Z,96.73
2019-01-04T02:10:48.291Z,96.73
2019-01-04T02:11:46.825Z,95.98
2019-01-04T02:12:45.360Z,96.17
2019-01-04T02:13:44.140Z,96.17
2019-01-04T02:14:42.751Z,96.26
2019-01-04T02:15:41.298Z,96.26
2019-01-04T02:16:39.883Z,95.6
2019-01-04T02:17:38.470Z,95.79
2019-01-04T02:18:37.004Z,95.79
2019-01-04T02:19:35.559Z,95.79
2019-01-04T02:20:34.092Z,95.79
2019-01-04T02:21:32.668Z,95.69
2019-01-04T02:22:31.217Z,96.08
2019-01-04T02:23:30.081Z,95.69
2019-01-04T02:24:28.761Z,95.5
2019-01-04T02:25:27.275Z,95.88
2019-01-04T02:26:25.944Z,95.88
2019-01-04T02:27:24.592Z,95.6
2019-01-04T02:28:23.183Z,95.5
2019-01-04T02:29:21.721Z,95.5
2019-01-04T02:30:20.243Z,94.93
2019-01-04T02:31:18.785Z,95.6
2019-01-04T02:32:17.331Z,95.31
2019-01-04T02:33:16.206Z,95.31
2019-01-04T02:34:14.751Z,95.5
2019-01-04T02:35:13.284Z,95.5
2019-01-04T02:36:12.084Z,95.31
2019-01-04T02:37:10.713Z,95.41
2019-01-04T02:38:09.229Z,95.79
2019-01-04T02:39:07.770Z,95.31
2019-01-04T02:40:06.332Z,96.17
2019-01-04T02:41:04.878Z,95.79
2019-01-04T02:42:03.419Z,95.79
2019-01-04T02:43:01.967Z,95.79
2019-01-04T02:44:00.483Z,95.98
2019-01-04T02:44:59.021Z,95.6
2019-01-04T02:45:57.634Z,96.17
2019-01-04T02:46:56.354Z,95.79
2019-01-04T02:47:55.040Z,95.5
2019-01-04T02:48:53.750Z,95.5
2019-01-04T02:49:52.533Z,95.5
2019-01-04T02:50:51.072Z,95.5
2019-01-04T02:51:49.610Z,95.69
2019-01-04T02:52:48.367Z,95.69
2019-01-04T02:53:46.920Z,95.5
2019-01-04T02:54:45.572Z,95.69
2019-01-04T02:55:44.385Z,95.98
2019-01-04T02:56:43.047Z,95.69
2019-01-04T02:57:41.616Z,95.88
2019-01-04T02:58:40.147Z,95.22
2019-01-04T02:59:38.674Z,96.08
2019-01-04T03:00:37.208Z,95.22
2019-01-04T03:01:35.762Z,95.41
2019-01-04T03:02:34.296Z,95.31
2019-01-04T03:03:32.851Z,95.41
2019-01-04T03:04:31.401Z,95.5
2019-01-04T03:05:30.223Z,95.6
2019-01-04T03:06:28.782Z,95.79
2019-01-04T03:07:27.356Z,94.65
2019-01-04T03:08:26.092Z,94.56
2019-01-04T03:09:24.920Z,94.74
2019-01-04T03:10:24.222Z,95.5
2019-01-04T03:11:22.808Z,95.41
2019-01-04T03:12:21.357Z,94.74
2019-01-04T03:13:19.908Z,95.5
2019-01-04T03:14:18.432Z,95.31
2019-01-04T03:15:16.965Z,94.93
2019-01-04T03:16:15.502Z,94.56
2019-01-04T03:17:14.329Z,95.03
2019-01-04T03:18:12.887Z,94.65
2019-01-04T03:19:11.408Z,94.18
2019-01-04T03:20:10.308Z,94.03
2019-01-04T03:21:08.826Z,94.37
2019-01-04T03:22:07.351Z,94.27
2019-01-04T03:23:06.013Z,94.65
2019-01-04T03:24:04.532Z,93.99
2019-01-04T03:25:03.137Z,93.99
2019-01-04T03:26:01.706Z,94.27
2019-01-04T03:27:00.429Z,94.46
2019-01-04T03:27:58.977Z,94.27
2019-01-04T03:28:57.609Z,94.74
2019-01-04T03:29:56.416Z,94.37
2019-01-04T03:30:54.965Z,94.37
2019-01-04T03:31:53.523Z,94.84
2019-01-04T03:32:52.211Z,94.27
2019-01-04T03:33:50.772Z,94.74
2019-01-04T03:34:49.362Z,94.27
2019-01-04T03:35:48.335Z,94.27
2019-01-04T03:36:46.914Z,94.37
2019-01-04T03:37:45.484Z,94.56
2019-01-04T03:38:44.146Z,94.74
2019-01-04T03:39:42.839Z,94.08
2019-01-04T03:40:41.380Z,93.89
2019-01-04T03:41:39.943Z,94.56
2019-01-04T03:42:38.606Z,94.27
2019-01-04T03:43:37.233Z,94.56
2019-01-04T03:44:35.860Z,94.27
2019-01-04T03:45:34.637Z,94.27
2019-01-04T03:46:33.145Z,94.03
2019-01-04T03:47:31.716Z,94.03
2019-01-04T03:48:30.387Z,94.27
2019-01-04T03:49:28.927Z,95.03
2019-01-04T03:50:27.467Z,93.89
2019-01-04T03:51:26.132Z,93.8
2019-01-04T03:52:24.686Z,94.08
2019-01-04T03:53:23.233Z,94.18
2019-01-04T03:54:22.338Z,94.18
2019-01-04T03:55:20.899Z,93.89
2019-01-04T03:56:19.455Z,94.08
2019-01-04T03:59:00.006Z,94.18
2019-01-04T03:59:58.616Z,94.08
2019-01-04T04:00:57.173Z,93.99
2019-01-04T04:01:55.937Z,94.74
2019-01-04T04:02:54.535Z,94.46
2019-01-04T04:03:53.079Z,94.74
2019-01-04T04:04:51.617Z,94.74
2019-01-04T04:05:50.149Z,94.27
2019-01-04T04:06:48.813Z,94.27
2019-01-04T04:07:47.330Z,94.84
2019-01-04T04:08:46.059Z,94.46
2019-01-04T04:09:44.618Z,94.84
2019-01-04T04:10:43.159Z,95.12
2019-01-04T04:11:41.950Z,95.41
2019-01-04T04:12:41.618Z,94.93
2019-01-04T04:13:40.197Z,95.03
2019-01-04T04:14:38.725Z,95.41
2019-01-04T04:15:37.260Z,95.03
2019-01-04T04:16:35.802Z,95.41
2019-01-04T04:17:34.352Z,94.84
2019-01-04T04:18:32.910Z,94.74
2019-01-04T04:19:31.444Z,94.84
2019-01-04T04:20:30.275Z,94.56
2019-01-04T04:21:28.825Z,94.56
2019-01-04T04:22:27.355Z,94.46
2019-01-04T04:23:26.109Z,94.84
2019-01-04T04:24:24.793Z,94.84
2019-01-04T04:26:47.782Z,94.56
2019-01-04T04:27:46.457Z,94.56
2019-01-04T04:28:45.068Z,94.65
2019-01-04T04:29:43.615Z,95.03
2019-01-04T04:30:43.048Z,94.65
2019-01-04T04:31:41.575Z,94.37
2019-01-04T04:32:40.225Z,95.31
2019-01-04T04:33:38.844Z,94.84
2019-01-04T04:34:37.383Z,94.93
2019-01-04T04:35:36.325Z,94.84
2019-01-04T04:36:34.889Z,94.74
2019-01-04T04:37:33.494Z,94.74
2019-01-04T04:38:32.197Z,94.46
2019-01-04T04:39:30.755Z,94.74
2019-01-04T04:40:30.742Z,94.74
2019-01-04T04:41:27.905Z,94.84
2019-01-04T04:42:26.484Z,94.74
2019-01-04T04:43:25.165Z,94.84
2019-01-04T04:44:23.998Z,94.74
2019-01-04T04:45:22.696Z,94.74
2019-01-04T04:46:21.243Z,94.74
2019-01-04T04:47:19.938Z,94.27
2019-01-04T04:48:18.582Z,94.46
2019-01-04T04:49:17.175Z,94.46
2019-01-04T04:50:15.787Z,94.27
2019-01-04T04:51:14.515Z,94.27
2019-01-04T04:52:13.064Z,94.18
2019-01-04T04:53:11.713Z,95.03
2019-01-04T04:54:10.499Z,94.65
2019-01-04T04:55:09.026Z,94.46
2019-01-04T04:56:07.591Z,94.93
2019-01-04T04:57:06.213Z,95.22
2019-01-04T04:58:04.754Z,95.12
2019-01-04T04:59:03.316Z,95.03
2019-01-04T05:01:43.691Z,94.65
2019-01-04T05:02:42.500Z,94.65
2019-01-04T05:03:41.033Z,94.65
2019-01-04T05:04:39.620Z,95.12
2019-01-04T05:05:38.209Z,94.84
2019-01-04T05:06:36.866Z,95.03
2019-01-04T05:07:35.437Z,95.45
2019-01-04T05:08:34.259Z,95.03
2019-01-04T05:09:32.800Z,95.36
2019-01-04T05:10:31.341Z,95.31
2019-01-04T05:11:30.207Z,95.55
2019-01-04T05:12:28.851Z,95.79
2019-01-04T05:13:27.397Z,95.41
2019-01-04T05:14:25.927Z,95.5
2019-01-04T05:15:24.449Z,95.5
2019-01-04T05:16:22.999Z,95.69
2019-01-04T05:17:21.589Z,95.6
2019-01-04T05:18:20.393Z,95.5
2019-01-04T05:20:45.083Z,95.6
2019-01-04T05:21:43.634Z,94.65
2019-01-04T05:22:42.292Z,95.22
2019-01-04T05:23:41.082Z,95.12
2019-01-04T05:24:39.416Z,95.6
2019-01-04T05:25:38.057Z,95.5
2019-01-04T05:26:36.581Z,95.79
2019-01-04T05:27:35.175Z,95.41
2019-01-04T05:28:33.894Z,94.93
2019-01-04T05:29:32.537Z,95.12
2019-01-04T05:30:31.088Z,94.84
2019-01-04T05:31:30.004Z,95.12
2019-01-04T05:32:28.552Z,94.65
2019-01-04T05:33:27.084Z,94.18
2019-01-04T05:34:25.874Z,94.37
2019-01-04T05:35:24.524Z,94.74
2019-01-04T05:36:23.099Z,94.65
2019-01-04T05:37:21.778Z,94.65
2019-01-04T05:38:20.520Z,94.84
2019-01-04T05:39:19.064Z,94.46
2019-01-04T05:40:17.654Z,94.46
2019-01-04T05:41:16.199Z,95.12
2019-01-04T05:42:14.778Z,94.65
2019-01-04T05:43:13.347Z,94.27
2019-01-04T05:44:12.160Z,94.56
2019-01-04T05:45:10.715Z,94.18
2019-01-04T05:46:09.240Z,94.37
2019-01-04T05:47:07.943Z,94.27
2019-01-04T05:48:06.668Z,94.08
2019-01-04T05:49:05.258Z,93.7
2019-01-04T05:50:03.798Z,93.51
2019-01-04T05:51:02.328Z,93.41
2019-01-04T05:52:00.917Z,93.61
2019-01-04T05:52:59.457Z,94.27
2019-01-04T05:53:58.319Z,94.18
2019-01-04T05:54:56.939Z,94.56
2019-01-04T05:55:55.550Z,94.27
2019-01-04T05:56:54.264Z,93.99
2019-01-04T05:57:52.889Z,94.46
2019-01-04T05:58:51.445Z,94.27
2019-01-04T05:59:50.563Z,94.18
2019-01-04T06:00:49.410Z,94.65
2019-01-04T06:01:47.933Z,94.18
2019-01-04T06:02:46.561Z,94.08
2019-01-04T06:03:45.094Z,94.27
2019-01-04T06:04:44.005Z,93.7
2019-01-04T06:05:42.599Z,93.51
2019-01-04T06:06:42.055Z,94.08
2019-01-04T06:07:40.665Z,94.18
2019-01-04T06:08:39.211Z,94.08
2019-01-04T06:09:37.854Z,94.18
2019-01-04T06:10:36.524Z,94.46
2019-01-04T06:11:35.100Z,94.37
2019-01-04T06:12:33.646Z,94.27
2019-01-04T06:13:32.154Z,94.46
2019-01-04T06:14:30.699Z,94.27
2019-01-04T06:15:29.239Z,94.18
2019-01-04T06:16:28.106Z,94.37
2019-01-04T06:17:26.653Z,94.56
2019-01-04T06:18:25.192Z,94.84
2019-01-04T06:19:24.093Z,94.37
2019-01-04T06:20:22.728Z,94.27
2019-01-04T06:21:21.252Z,94.18
2019-01-04T06:22:19.821Z,94.18
2019-01-04T06:23:18.584Z,94.37
2019-01-04T06:24:17.119Z,94.18
2019-01-04T06:25:15.798Z,94.37
2019-01-04T06:26:14.489Z,94.37
2019-01-04T06:27:13.048Z,94.18
2019-01-04T06:28:11.573Z,94.65
2019-01-04T06:29:10.265Z,94.84
2019-01-04T06:30:08.828Z,95.31
2019-01-04T06:31:07.369Z,95.03
2019-01-04T06:32:05.928Z,95.5
2019-01-04T06:33:04.595Z,95.41
2019-01-04T06:34:03.139Z,95.41
2019-01-04T06:35:01.920Z,94.84
2019-01-04T06:36:00.624Z,95.79
2019-01-04T06:36:59.149Z,95.6
2019-01-04T06:37:57.826Z,95.79
2019-01-04T06:38:56.440Z,96.08
2019-01-04T06:39:54.974Z,96.08
2019-01-04T06:40:53.638Z,95.98
2019-01-04T06:41:52.325Z,96.08
2019-01-04T06:42:50.873Z,95.98
2019-01-04T06:43:49.535Z,95.79
2019-01-04T06:46:29.892Z,96.36
2019-01-04T06:47:28.664Z,96.55
2019-01-04T06:48:27.218Z,96.26
2019-01-04T06:49:26.015Z,96.26
2019-01-04T06:50:24.734Z,96.36
2019-01-04T06:51:27.693Z,95.5
2019-01-04T06:52:22.094Z,96.08
2019-01-04T06:53:20.708Z,95.88
2019-01-04T06:54:19.260Z,95.88
2019-01-04T06:55:18.142Z,95.88
2019-01-04T06:56:16.813Z,96.08
2019-01-04T06:57:15.454Z,96.17
2019-01-04T06:58:14.083Z,95.79
2019-01-04T06:59:12.680Z,95.98
2019-01-04T07:00:11.860Z,96.17
2019-01-04T07:01:10.158Z,95.98
2019-01-04T07:02:08.693Z,95.79
2019-01-04T07:03:07.238Z,95.5
2019-01-04T07:04:06.049Z,95.69
2019-01-04T07:05:04.747Z,96.17
2019-01-04T07:06:03.847Z,96.45
2019-01-04T07:07:02.604Z,96.08
2019-01-04T07:08:01.123Z,96.73
2019-01-04T07:08:59.674Z,96.45
2019-01-04T07:09:58.353Z,96.73
2019-01-04T07:10:57.200Z,97.02
2019-01-04T07:11:56.563Z,97.02
2019-01-04T07:12:55.123Z,96.55
2019-01-04T07:13:53.849Z,96.26
2019-01-04T07:14:52.627Z,96.26
2019-01-04T07:16:18.701Z,95.41
2019-01-04T07:17:17.304Z,96.36
2019-01-04T07:18:16.270Z,96.73
2019-01-04T07:19:14.840Z,97.31
2019-01-04T07:20:13.370Z,97.21
2019-01-04T07:21:12.123Z,96.92
2019-01-04T07:22:10.836Z,96.55
2019-01-04T07:23:09.370Z,96.73
2019-01-04T07:24:08.001Z,96.64
2019-01-04T07:25:06.755Z,96.36
2019-01-04T07:26:05.290Z,95.69
2019-01-04T07:27:04.181Z,96.08
2019-01-04T07:28:02.893Z,96.45
2019-01-04T07:29:01.869Z,95.98
2019-01-04T07:30:00.540Z,96.64
2019-01-04T07:30:59.096Z,96.17
2019-01-04T07:31:58.039Z,96.26
2019-01-04T07:32:56.523Z,96.92
2019-01-04T07:33:55.264Z,96.64
2019-01-04T07:34:53.952Z,96.83
2019-01-04T07:35:52.616Z,97.02
2019-01-04T07:36:51.176Z,96.83
2019-01-04T07:37:49.908Z,96.83
2019-01-04T07:38:48.573Z,96.92
2019-01-04T07:39:47.261Z,97.21
2019-01-04T07:40:46.074Z,97.59
2019-01-04T07:41:44.812Z,97.88
2019-01-04T07:42:43.350Z,97.4
2019-01-04T07:43:42.116Z,97.31
2019-01-04T07:44:40.990Z,96.92
2019-01-04T07:45:39.629Z,96.83
2019-01-04T07:46:38.567Z,96.83
2019-01-04T07:47:37.139Z,96.73
2019-01-04T07:48:35.637Z,96.55
2019-01-04T07:49:34.189Z,96.64
2019-01-04T07:50:32.718Z,96.36
2019-01-04T07:51:31.229Z,96.45
2019-01-04T07:52:29.740Z,96.17
2019-01-04T07:53:28.271Z,96.55
2019-01-04T07:54:26.833Z,96.73
2019-01-04T07:55:26.159Z,96.55
2019-01-04T07:56:24.795Z,96.36
2019-01-04T07:57:23.328Z,96.55
2019-01-04T07:58:21.851Z,96.83
2019-01-04T07:59:20.386Z,97.5
2019-01-04T08:00:18.940Z,96.92
2019-01-04T08:01:17.515Z,96.83
2019-01-04T08:02:16.376Z,96.55
2019-01-04T08:03:14.921Z,96.36
2019-01-04T08:04:13.573Z,96.55
2019-01-04T08:05:12.303Z,96.73
2019-01-04T08:06:10.937Z,96.92
2019-01-04T08:07:09.443Z,96.55
2019-01-04T08:08:08.487Z,96.45
2019-01-04T08:09:07.029Z,96.26
2019-01-04T08:10:05.759Z,96.26
2019-01-04T08:11:04.521Z,95.98
2019-01-04T08:12:03.114Z,95.98
2019-01-04T08:13:01.621Z,96.26
2019-01-04T08:14:00.231Z,95.41
2019-01-04T08:14:58.821Z,95.88
2019-01-04T08:15:57.442Z,95.79
2019-01-04T08:16:55.995Z,96.36
2019-01-04T08:17:54.638Z,96.55
2019-01-04T08:20:34.707Z,96.55
2019-01-04T08:21:33.260Z,96.08
2019-01-04T08:22:31.957Z,96.36
2019-01-04T08:23:30.698Z,96.92
2019-01-04T08:24:29.211Z,96.36
2019-01-04T08:25:28.433Z,96.92
2019-01-04T08:26:27.000Z,96.64
2019-01-04T08:27:25.504Z,95.98
2019-01-04T08:28:24.472Z,95.65
2019-01-04T08:29:23.657Z,95.93
2019-01-04T08:30:22.340Z,95.36
2019-01-04T08:31:20.873Z,95.36
2019-01-04T08:32:19.383Z,95.46
2019-01-04T08:33:18.227Z,94.89
2019-01-04T08:34:16.733Z,94.7
2019-01-04T08:35:15.314Z,95.12
2019-01-04T08:36:14.089Z,95.41
2019-01-04T08:37:12.767Z,95.69
2019-01-04T08:38:11.330Z,95.6
2019-01-04T08:39:09.887Z,95.36
2019-01-04T08:40:08.431Z,95.46
2019-01-04T08:41:06.966Z,94.89
2019-01-04T08:42:05.522Z,94.6
2019-01-04T08:43:04.383Z,94.89
2019-01-04T08:44:02.920Z,94.13
2019-01-04T08:45:01.451Z,94.7
2019-01-04T08:46:00.396Z,94.7
2019-01-04T08:46:58.889Z,94.23
2019-01-04T08:47:57.558Z,94.42
2019-01-04T08:48:56.095Z,94.03
2019-01-04T08:49:54.785Z,94.98
2019-01-04T08:50:53.343Z,94.51
2019-01-04T08:51:52.053Z,94.32
2019-01-04T08:52:50.742Z,94.32
2019-01-04T08:53:49.290Z,93.75
2019-01-04T08:54:48.060Z,93.94
2019-01-04T08:55:46.626Z,94.03
2019-01-04T08:56:45.189Z,93.46
2019-01-04T08:57:43.703Z,93.46
2019-01-04T08:58:42.228Z,93.18
2019-01-04T08:59:40.813Z,93.27
2019-01-04T09:00:39.709Z,93.46
2019-01-04T09:01:38.569Z,93.65
2019-01-04T09:02:37.159Z,93.65
2019-01-04T09:03:35.700Z,94.23
2019-01-04T09:04:34.278Z,94.23
2019-01-04T09:05:32.818Z,94.03
2019-01-04T09:06:31.362Z,94.23
2019-01-04T09:07:29.909Z,94.13
2019-01-04T09:08:28.669Z,94.23
2019-01-04T09:09:27.192Z,94.13
2019-01-04T09:10:25.838Z,94.13
2019-01-04T09:11:24.509Z,93.75
2019-01-04T09:12:23.055Z,93.56
2019-01-04T09:13:21.622Z,93.27
2019-01-04T09:14:20.358Z,93.18
2019-01-04T09:15:18.873Z,92.8
2019-01-04T09:16:17.406Z,92.8
2019-01-04T09:17:15.895Z,93.27
2019-01-04T09:18:15.195Z,93.37
2019-01-04T09:19:13.875Z,92.61
2019-01-04T09:20:12.525Z,93.27
2019-01-04T09:21:11.047Z,93.37
2019-01-04T09:22:09.564Z,93.18
2019-01-04T09:23:08.061Z,93.46
2019-01-04T09:24:06.648Z,92.99
2019-01-04T09:25:05.403Z,93.27
2019-01-04T09:26:04.088Z,93.37
2019-01-04T09:27:02.827Z,92.71
2019-01-04T09:28:01.382Z,92.52
2019-01-04T09:30:41.639Z,93.18
2019-01-04T09:31:40.423Z,93.08
2019-01-04T09:32:39.034Z,92.52
2019-01-04T09:33:37.600Z,92.61
2019-01-04T09:34:36.473Z,92.42
2019-01-04T09:35:34.989Z,92.9
2019-01-04T09:36:33.540Z,92.71
2019-01-04T09:37:32.156Z,93.18
2019-01-04T09:38:30.722Z,92.71
2019-01-04T09:39:29.278Z,92.61
2019-01-04T09:40:27.824Z,92.52
2019-01-04T09:41:26.395Z,93.18
2019-01-04T09:42:24.951Z,93.27
2019-01-04T09:43:23.502Z,92.8
2019-01-04T09:44:22.297Z,92.9
2019-01-04T09:45:20.849Z,92.42
2019-01-04T09:46:19.443Z,92.8
2019-01-04T09:47:18.125Z,92.61
2019-01-04T09:50:40.580Z,92.23
2019-01-04T09:51:39.148Z,92.52
2019-01-04T09:52:37.935Z,92.37
2019-01-04T09:53:36.768Z,92.33
2019-01-04T09:54:35.272Z,92.14
2019-01-04T09:55:34.569Z,92.52
2019-01-04T09:56:33.120Z,92.04
2019-01-04T09:57:31.667Z,92.14
2019-01-04T09:58:30.278Z,92.33
2019-01-04T09:59:28.855Z,91.61
2019-01-04T10:00:27.403Z,91.61
2019-01-04T10:01:26.375Z,91.8
2019-01-04T10:02:24.955Z,91.89
2019-01-04T10:03:23.550Z,91.71
2019-01-04T10:04:22.203Z,91.52
2019-01-04T10:05:20.964Z,91.04
2019-01-04T10:06:19.516Z,90.76
2019-01-04T10:07:18.455Z,91.24
2019-01-04T10:08:17.008Z,91.19
2019-01-04T10:09:15.593Z,91.8
2019-01-04T10:10:14.320Z,91.85
2019-01-04T10:11:12.854Z,91.85
2019-01-04T10:12:11.415Z,91.71
2019-01-04T10:13:10.017Z,91.61
2019-01-04T10:14:08.647Z,91.52
2019-01-04T10:15:07.169Z,91.33
2019-01-04T10:16:06.078Z,91.52
2019-01-04T10:17:04.753Z,91.8
2019-01-04T10:18:03.416Z,91.24
2019-01-04T10:19:02.122Z,92.04
2019-01-04T10:20:00.651Z,91.8
2019-01-04T10:20:59.234Z,91.8
2019-01-04T10:23:39.642Z,92.71
2019-01-04T10:24:39.003Z,92.52
2019-01-04T10:25:37.605Z,92.42
2019-01-04T10:26:36.525Z,93.18
2019-01-04T10:27:35.065Z,93.37
2019-01-04T10:28:33.567Z,93.84
2019-01-04T10:29:32.463Z,93.84
2019-01-04T10:30:30.990Z,93.46
2019-01-04T10:31:29.787Z,94.32
2019-01-04T10:43:06.407Z,94.6
2019-01-04T10:44:05.001Z,94.51
2019-01-04T10:45:03.592Z,94.79
2019-01-04T10:46:02.565Z,94.13
2019-01-04T10:47:01.234Z,93.8
2019-01-04T10:47:59.974Z,93.23
2019-01-04T10:48:58.618Z,92.66
2019-01-04T10:49:57.123Z,92.85
2019-01-04T10:50:55.743Z,92.75
2019-01-04T10:51:54.256Z,92.85
2019-01-04T10:52:52.816Z,92.75
2019-01-04T10:53:51.355Z,93.51
2019-01-04T10:54:50.289Z,92.66
2019-01-04T10:55:49.014Z,92.66
2019-01-04T10:56:48.305Z,92.09
2019-01-04T10:57:46.830Z,92.47
2019-01-04T10:58:45.475Z,92.56
2019-01-04T10:59:44.092Z,92.9
2019-01-04T11:00:42.938Z,93.37
2019-01-04T11:01:41.519Z,93.56
2019-01-04T11:02:40.359Z,93.37
2019-01-04T11:03:38.933Z,94.08
2019-01-04T11:04:37.453Z,93.51
2019-01-04T11:05:36.196Z,93.13
2019-01-04T11:06:34.920Z,93.51
2019-01-04T11:07:33.611Z,93.18
2019-01-04T11:08:32.443Z,93.51
2019-01-04T11:09:31.103Z,93.75
2019-01-04T11:10:29.683Z,94.13
2019-01-04T11:11:28.396Z,93.94
2019-01-04T11:12:27.019Z,94.79
2019-01-04T11:13:25.590Z,94.23
2019-01-04T11:14:24.521Z,94.18
2019-01-04T11:15:23.101Z,93.84
2019-01-04T11:16:21.724Z,93.94
2019-01-04T11:17:20.448Z,94.23
2019-01-04T11:18:19.019Z,94.6
2019-01-04T11:19:17.598Z,94.7
2019-01-04T11:20:16.167Z,94.51
2019-01-04T11:21:14.673Z,94.79
2019-01-04T11:22:13.245Z,94.6
2019-01-04T11:23:11.861Z,94.7
2019-01-04T11:24:10.536Z,94.7
2019-01-04T11:25:09.074Z,94.7
2019-01-04T11:26:07.704Z,94.7
2019-01-04T11:27:06.474Z,94.89
2019-01-04T11:28:05.060Z,94.79
2019-01-04T11:29:03.611Z,94.32
2019-01-04T11:30:02.256Z,94.42
2019-01-04T11:31:00.784Z,94.79
2019-01-04T11:31:59.366Z,94.51
2019-01-04T11:32:57.878Z,94.98
2019-01-04T11:33:58.588Z,94.89
2019-01-04T11:34:57.154Z,94.6
2019-01-04T11:35:55.840Z,94.7
2019-01-04T11:36:54.635Z,95.17
2019-01-04T11:37:53.162Z,95.07
2019-01-04T11:38:51.720Z,95.17
2019-01-04T11:39:50.322Z,94.79
2019-01-04T11:40:48.884Z,94.37
2019-01-04T11:41:47.465Z,94.13
2019-01-04T11:42:46.023Z,93.84
2019-01-04T11:43:44.742Z,94.27
2019-01-04T11:44:43.300Z,94.27
2019-01-04T11:45:41.987Z,93.6
2019-01-04T11:46:40.687Z,93.6
2019-01-04T11:47:39.274Z,92.66
2019-01-04T11:48:38.182Z,92.37
2019-01-04T11:49:36.844Z,91.89
2019-01-04T11:50:35.366Z,91.99
2019-01-04T11:51:34.301Z,91.8
2019-01-04T11:52:32.986Z,92.28
2019-01-04T11:53:31.452Z,92.47
2019-01-04T11:54:30.288Z,92.47
2019-01-04T11:55:29.382Z,92.56
2019-01-04T11:56:28.854Z,92.28
2019-01-04T11:57:26.971Z,92.37
2019-01-04T11:58:26.126Z,91.42
2019-01-04T11:59:24.746Z,91.61
2019-01-04T12:00:24.727Z,91.66
2019-01-04T12:01:23.452Z,91.66
2019-01-04T12:02:26.289Z,90.9
2019-01-04T12:03:21.937Z,91.42
2019-01-04T12:04:23.211Z,91.28
2019-01-04T12:05:22.197Z,91.38
2019-01-04T12:06:21.595Z,90.61
2019-01-04T12:07:21.838Z,90.61
2019-01-04T12:08:21.201Z,90.33
2019-01-04T12:09:19.820Z,90.52
2019-01-04T12:10:19.047Z,90.33
2019-01-04T12:11:17.784Z,90.52
2019-01-04T12:12:16.658Z,90.52
2019-01-04T12:13:15.265Z,89.76
2019-01-04T12:14:14.073Z,90.23
2019-01-04T12:15:13.667Z,89.95
2019-01-04T12:16:13.308Z,90.23
2019-01-04T12:17:11.714Z,90.14
2019-01-04T12:18:10.336Z,90.23
2019-01-04T12:19:08.883Z,89.38
2019-01-04T12:20:07.922Z,89.38
2019-01-04T12:21:06.630Z,89.57
2019-01-04T12:22:05.822Z,90.23
2019-01-04T12:23:11.023Z,89.76
2019-01-04T12:24:03.595Z,90.23
2019-01-04T12:25:02.606Z,90.14
2019-01-04T12:26:01.197Z,90.8
2019-01-04T12:26:59.741Z,90.61
2019-01-04T12:27:58.404Z,90.14
2019-01-04T12:28:57.156Z,90.14
2019-01-04T12:29:55.950Z,89.95
2019-01-04T12:30:54.814Z,90.05
2019-01-04T12:31:53.408Z,90.05
2019-01-04T12:32:51.927Z,89.76
2019-01-04T12:33:50.462Z,90.14
2019-01-04T12:34:49.159Z,89.95
2019-01-04T12:35:47.688Z,90.42
2019-01-04T12:36:46.489Z,90.05
2019-01-04T12:37:45.157Z,90.14
2019-01-04T12:40:25.356Z,90.23
2019-01-04T12:41:23.909Z,90.52
2019-01-04T12:42:22.504Z,90.71
2019-01-04T12:43:21.082Z,90.14
2019-01-04T12:44:19.629Z,90.23
2019-01-04T12:45:18.582Z,89.57
2019-01-04T12:46:17.106Z,90.05
2019-01-04T12:47:15.797Z,89.95
2019-01-04T12:48:14.664Z,89.28
2019-01-04T12:49:13.222Z,89.47
2019-01-04T12:50:12.016Z,89.47
2019-01-04T12:51:10.692Z,89.38
2019-01-04T12:52:09.361Z,89.19
2019-01-04T12:53:08.816Z,89.47
2019-01-04T12:54:07.384Z,89.19
2019-01-04T12:55:06.040Z,89.19
2019-01-04T12:56:04.704Z,89.28
2019-01-04T12:57:03.360Z,89.28
2019-01-04T12:58:02.356Z,89.28
2019-01-04T12:59:01.009Z,89.57
2019-01-04T12:59:59.775Z,89.67
2019-01-04T13:00:58.352Z,89.67
2019-01-04T13:01:56.889Z,89.86
2019-01-04T13:02:55.458Z,89.28
2019-01-04T13:03:54.346Z,89.67
2019-01-04T13:04:53.063Z,89.67
2019-01-04T13:05:51.856Z,89.86
2019-01-04T13:06:50.621Z,90.23
2019-01-04T13:07:49.433Z,90.05
2019-01-04T13:08:49.005Z,90.33
2019-01-04T13:09:47.543Z,89.95
2019-01-04T13:10:46.291Z,90.33
2019-01-04T13:11:44.933Z,90.52